Time;durP1;ratioP1;P1;durP2;ratioP2;P2;SDS_P1;SDS_P2;PMS_P1;PMS_P2;Temp;Humidity;BMP_temperature;BMP_pressure;BME280_temperature;BME280_humidity;BME280_pressure;Samples;Min_cycle;Max_cycle;Signal;HPM_P1;HPM_P2
2022/10/24 00:01:13;;;;;;;;;;;15.30;99.90;;;;;;5069507;28;19978;-80
2022/10/24 00:03:40;;;;;;;;;;;15.30;99.90;;;;;;5061985;28;20046;-81
2022/10/24 00:06:08;;;;;;;;;;;15.30;99.90;;;;;;5060954;28;20069;-79
2022/10/24 00:08:35;;;;;;;;;;;16.30;99.90;;;;;;5076767;28;19928;-79
2022/10/24 00:11:02;;;;;;;;;;;15.30;99.90;;;;;;5063652;28;19939;-79
2022/10/24 00:13:29;;;;;;;;;;;15.30;99.90;;;;;;5070667;28;20027;-79
2022/10/24 00:15:57;;;;;;;;;;;15.30;99.90;;;;;;5066023;28;19929;-79
2022/10/24 00:18:25;;;;;;;;;;;15.30;99.90;;;;;;5072253;28;19924;-79
2022/10/24 00:20:58;;;;;;;;;;;15.30;99.90;;;;;;5062939;28;19936;-79
2022/10/24 00:23:31;;;;;;;;;;;15.30;99.90;;;;;;5060194;28;19932;-78
2022/10/24 00:26:00;;;;;;;;;;;15.30;99.90;;;;;;5061895;28;19929;-80
2022/10/24 00:28:42;;;;;;;;;;;15.30;99.90;;;;;;5068249;28;20415;-80
2022/10/24 00:31:16;;;;;;;;;;;15.40;99.90;;;;;;5075308;28;19971;-80
2022/10/24 00:33:55;;;;;;;;;;;15.30;99.90;;;;;;5071434;28;20470;-79
2022/10/24 00:36:34;;;;;;;;;;;15.30;99.90;;;;;;5070436;28;20555;-79
2022/10/24 00:39:04;;;;;;;;;;;15.40;99.90;;;;;;5061643;28;19933;-78
2022/10/24 00:41:40;;;;;;;;;;;15.30;99.90;;;;;;5072222;28;19925;-79
2022/10/24 00:44:33;;;;;;;;;;;15.30;99.90;;;;;;5055119;28;19925;-80
2022/10/24 00:47:16;;;;;;;;;;;15.30;99.90;;;;;;5065657;28;19942;-80
2022/10/24 00:49:49;;;;;;;;;;;15.30;99.90;;;;;;5067829;28;19928;-78
2022/10/24 00:52:21;;;;;;;;;;;15.40;99.90;;;;;;5053345;28;20330;-80
2022/10/24 00:54:55;;;;;;;;;;;15.40;99.90;;;;;;5067084;28;19933;-80
2022/10/24 00:57:33;;;;;;;;;;;15.40;99.90;;;;;;5060662;28;20239;-79
2022/10/24 01:00:22;;;;;;;;;;;15.40;99.90;;;;;;5065557;28;20000;-80
2022/10/24 01:03:04;;;;;;;;;;;15.40;99.90;;;;;;5074890;28;19929;-78
2022/10/24 01:05:41;;;;;;;;;;;15.40;99.90;;;;;;5068247;28;20035;-80
2022/10/24 01:08:24;;;;;;;;;;;15.40;99.90;;;;;;5064530;28;19988;-80
2022/10/24 01:11:03;;;;;;;;;;;15.40;99.90;;;;;;5075338;28;19924;-81
2022/10/24 01:13:42;;;;;;;;;;;15.40;99.90;;;;;;5057330;28;19935;-82
2022/10/24 01:16:19;;;;;;;;;;;15.50;99.90;;;;;;5072125;28;19929;-81
2022/10/24 01:18:53;;;;;;;;;;;15.50;99.90;;;;;;5055197;28;19959;-81
2022/10/24 01:21:43;;;;;;;;;;;15.50;99.90;;;;;;5063449;28;20023;-80
2022/10/24 01:24:32;;;;;;;;;;;15.50;99.90;;;;;;5063247;28;19986;-79
2022/10/24 01:27:14;;;;;;;;;;;15.50;99.90;;;;;;5066840;28;19925;-79
2022/10/24 01:29:53;;;;;;;;;;;15.50;99.90;;;;;;5051138;28;19925;-78
2022/10/24 01:32:34;;;;;;;;;;;15.50;99.90;;;;;;5056186;28;19928;-79
2022/10/24 01:35:07;;;;;;;;;;;15.50;99.90;;;;;;5064473;28;19982;-79
2022/10/24 01:37:47;;;;;;;;;;;15.50;99.90;;;;;;5069347;28;20339;-79
2022/10/24 01:40:23;;;;;;;;;;;15.50;99.90;;;;;;5066261;28;20368;-78
2022/10/24 01:42:57;;;;;;;;;;;15.50;99.90;;;;;;5065283;28;19989;-78
2022/10/24 01:45:35;;;;;;;;;;;15.50;99.90;;;;;;5052841;28;20484;-78
2022/10/24 01:48:10;;;;;;;;;;;15.50;99.90;;;;;;5071152;28;19946;-78
2022/10/24 01:50:39;;;;;;;;;;;15.50;99.90;;;;;;5064235;28;19929;-79
2022/10/24 01:53:18;;;;;;;;;;;15.50;99.90;;;;;;5054015;28;19929;-79
2022/10/24 01:55:56;;;;;;;;;;;15.50;99.90;;;;;;5057313;28;19928;-81
2022/10/24 01:58:30;;;;;;;;;;;15.40;99.90;;;;;;5057495;28;19952;-79
2022/10/24 02:01:08;;;;;;;;;;;15.40;99.90;;;;;;5057309;28;19983;-78
2022/10/24 02:03:50;;;;;;;;;;;15.40;99.90;;;;;;5061577;28;19973;-80
2022/10/24 02:06:23;;;;;;;;;;;15.40;99.90;;;;;;5071649;28;19924;-80
2022/10/24 02:09:11;;;;;;;;;;;15.40;99.90;;;;;;5069910;28;20023;-80
2022/10/24 02:11:50;;;;;;;;;;;15.40;99.90;;;;;;5056166;28;20396;-79
2022/10/24 02:14:43;;;;;;;;;;;15.50;99.90;;;;;;5048869;28;19968;-80
2022/10/24 02:17:14;;;;;;;;;;;15.50;99.90;;;;;;5073516;28;19929;-79
2022/10/24 02:19:50;;;;;;;;;;;15.50;99.90;;;;;;5059467;28;19933;-81
2022/10/24 02:22:24;;;;;;;;;;;15.50;99.90;;;;;;5088893;28;20466;-81
2022/10/24 02:24:55;;;;;;;;;;;15.40;99.90;;;;;;5067721;28;19960;-81
2022/10/24 02:27:33;;;;;;;;;;;15.40;99.90;;;;;;5057241;28;19960;-82
2022/10/24 02:30:02;;;;;;;;;;;15.40;99.90;;;;;;5069903;28;19935;-81
2022/10/24 02:32:39;;;;;;;;;;;15.40;99.90;;;;;;5067381;28;20019;-82
2022/10/24 02:35:10;;;;;;;;;;;15.50;99.90;;;;;;5056738;28;19924;-82
2022/10/24 02:37:46;;;;;;;;;;;15.50;99.90;;;;;;5080112;28;20415;-82
2022/10/24 02:40:22;;;;;;;;;;;15.40;99.90;;;;;;5076336;28;20023;-81
2022/10/24 02:42:58;;;;;;;;;;;15.40;99.90;;;;;;5071101;28;20203;-82
2022/10/24 02:45:51;;;;;;;;;;;15.40;99.90;;;;;;5065708;28;19924;-81
2022/10/24 02:48:31;;;;;;;;;;;15.50;99.90;;;;;;5066703;28;19924;-80
2022/10/24 02:51:11;;;;;;;;;;;15.50;99.90;;;;;;5068440;28;19924;-81
2022/10/24 02:53:42;;;;;;;;;;;15.50;99.90;;;;;;5065123;28;19925;-80
2022/10/24 02:56:17;;;;;;;;;;;15.60;99.90;;;;;;5068377;28;19940;-80
2022/10/24 02:58:46;;;;;;;;;;;15.60;99.90;;;;;;5072049;28;20032;-80
2022/10/24 03:01:31;;;;;;;;;;;15.60;99.90;;;;;;5074755;28;19924;-82
2022/10/24 03:04:07;;;;;;;;;;;15.60;99.90;;;;;;5069268;28;19975;-80
2022/10/24 03:06:38;;;;;;;;;;;15.50;99.90;;;;;;5067376;28;20315;-78
2022/10/24 03:09:05;;;;;;;;;;;15.50;99.90;;;;;;5060328;28;19948;-80
2022/10/24 03:11:52;;;;;;;;;;;15.50;99.90;;;;;;5062438;28;20376;-80
2022/10/24 03:14:28;;;;;;;;;;;15.50;99.90;;;;;;5056938;28;19929;-81
2022/10/24 03:17:06;;;;;;;;;;;15.50;99.90;;;;;;5072199;28;20011;-79
2022/10/24 03:19:41;;;;;;;;;;;15.40;99.90;;;;;;5070303;28;19928;-81
2022/10/24 03:22:08;;;;;;;;;;;15.40;99.90;;;;;;5070668;28;19925;-83
2022/10/24 03:24:41;;;;;;;;;;;15.40;99.90;;;;;;5075439;28;19925;-84
2022/10/24 03:27:19;;;;;;;;;;;15.40;99.90;;;;;;5070942;28;20056;-83
2022/10/24 03:32:39;;;;;;;;;;;15.30;99.90;;;;;;5068227;28;20468;-82
2022/10/24 03:35:16;;;;;;;;;;;15.30;99.90;;;;;;5075592;28;20011;-82
2022/10/24 03:37:47;;;;;;;;;;;15.30;99.90;;;;;;5065035;28;19947;-81
2022/10/24 03:40:22;;;;;;;;;;;15.30;99.90;;;;;;5081947;28;19987;-84
2022/10/24 03:42:53;;;;;;;;;;;15.30;99.90;;;;;;5084886;28;19995;-84
2022/10/24 03:45:23;;;;;;;;;;;15.30;99.90;;;;;;5067806;28;19935;-84
2022/10/24 03:47:54;;;;;;;;;;;15.20;99.90;;;;;;5065931;28;20311;-84
2022/10/24 03:50:25;;;;;;;;;;;15.20;99.90;;;;;;5084084;28;20403;-84
2022/10/24 03:52:58;;;;;;;;;;;15.20;99.90;;;;;;5074835;28;20312;-84
2022/10/24 03:55:27;;;;;;;;;;;15.10;99.90;;;;;;5071767;22;19928;-74
2022/10/24 03:57:54;;;;;;;;;;;15.20;99.90;;;;;;5017960;28;19987;-74
2022/10/24 04:00:21;;;;;;;;;;;15.20;99.90;;;;;;5035620;28;20432;-74
2022/10/24 04:02:49;;;;;;;;;;;15.10;99.90;;;;;;5034782;28;19929;-75
2022/10/24 04:05:16;;;;;;;;;;;15.10;99.90;;;;;;5571191;22;20401;-74
2022/10/24 04:07:44;;;;;;;;;;;15.10;99.90;;;;;;5061478;28;20343;-74
2022/10/24 04:10:11;;;;;;;;;;;15.10;99.90;;;;;;5075226;28;19924;-74
2022/10/24 04:12:37;;;;;;;;;;;15.10;99.90;;;;;;5069303;28;19981;-74
2022/10/24 04:15:05;;;;;;;;;;;15.00;99.90;;;;;;5056711;28;19925;-74
2022/10/24 04:17:31;;;;;;;;;;;15.00;99.90;;;;;;5056876;28;19928;-75
2022/10/24 04:19:58;;;;;;;;;;;15.00;99.90;;;;;;5052949;28;19943;-74
2022/10/24 04:22:25;;;;;;;;;;;15.00;99.90;;;;;;5058184;28;19928;-74
2022/10/24 04:24:53;;;;;;;;;;;15.00;99.90;;;;;;5051826;28;19973;-74
2022/10/24 04:27:19;;;;;;;;;;;15.00;99.90;;;;;;5058488;28;19932;-74
2022/10/24 04:29:46;;;;;;;;;;;14.90;99.90;;;;;;5051090;28;19990;-74
2022/10/24 04:32:13;;;;;;;;;;;14.90;99.90;;;;;;5061253;28;19929;-74
2022/10/24 04:34:39;;;;;;;;;;;14.80;99.90;;;;;;5049281;28;19956;-74
2022/10/24 04:37:06;;;;;;;;;;;14.80;99.90;;;;;;5054289;28;19932;-74
2022/10/24 04:39:33;;;;;;;;;;;14.80;99.90;;;;;;5049219;28;19952;-74
2022/10/24 04:42:01;;;;;;;;;;;14.80;99.90;;;;;;5058557;28;19972;-75
2022/10/24 04:44:27;;;;;;;;;;;14.70;99.90;;;;;;5054379;28;19928;-75
2022/10/24 04:46:54;;;;;;;;;;;14.70;99.90;;;;;;5029767;28;20047;-75
2022/10/24 04:49:21;;;;;;;;;;;14.70;99.90;;;;;;5042238;28;19986;-75
2022/10/24 04:51:47;;;;;;;;;;;14.70;99.90;;;;;;5050239;28;19933;-75
2022/10/24 04:54:14;;;;;;;;;;;14.70;99.90;;;;;;5064620;28;19929;-76
2022/10/24 04:56:41;;;;;;;;;;;15.20;99.90;;;;;;5056847;28;19933;-76
2022/10/24 04:59:09;;;;;;;;;;;14.70;99.90;;;;;;5058947;28;19975;-75
2022/10/24 05:01:35;;;;;;;;;;;14.70;99.90;;;;;;5053733;28;19929;-76
2022/10/24 05:04:02;;;;;;;;;;;14.70;99.90;;;;;;5061310;28;19994;-76
2022/10/24 05:06:29;;;;;;;;;;;14.80;99.90;;;;;;5053221;28;19929;-74
2022/10/24 05:08:55;;;;;;;;;;;14.80;99.90;;;;;;5047356;28;19990;-75
2022/10/24 05:11:22;;;;;;;;;;;14.90;99.90;;;;;;5050949;28;19937;-74
2022/10/24 05:13:49;;;;;;;;;;;15.00;99.90;;;;;;5057908;28;19936;-76
2022/10/24 05:16:17;;;;;;;;;;;15.00;99.90;;;;;;5056051;28;19932;-75
2022/10/24 05:18:43;;;;;;;;;;;15.00;99.90;;;;;;5054756;28;19924;-75
2022/10/24 05:21:10;;;;;;;;;;;15.00;99.90;;;;;;5055957;28;19933;-76
2022/10/24 05:23:37;;;;;;;;;;;15.00;99.90;;;;;;5064404;28;19929;-76
2022/10/24 05:26:03;;;;;;;;;;;15.00;99.90;;;;;;5048010;28;19969;-76
2022/10/24 05:28:30;;;;;;;;;;;14.90;99.90;;;;;;5060220;28;20565;-75
2022/10/24 05:30:57;;;;;;;;;;;14.90;99.90;;;;;;5053030;28;19928;-76
2022/10/24 05:36:08;;;;;;;;;;;14.80;99.90;;;;;;5367857;22;20341;-75
2022/10/24 05:38:35;;;;;;;;;;;14.80;99.90;;;;;;5082084;28;20001;-76
2022/10/24 05:41:01;;;;;;;;;;;14.80;99.90;;;;;;5093132;28;20328;-75
2022/10/24 05:43:28;;;;;;;;;;;14.70;99.90;;;;;;5091778;28;20264;-76
2022/10/24 05:45:55;;;;;;;;;;;14.70;99.90;;;;;;5089483;28;20029;-75
2022/10/24 05:48:39;;;;;;;;;;;14.60;99.90;;;;;;5093995;22;19912;-82
2022/10/24 05:51:11;;;;;;;;;;;14.70;99.90;;;;;;5081727;28;19973;-80
2022/10/24 05:53:51;;;;;;;;;;;14.60;99.90;;;;;;5085238;28;19928;-81
2022/10/24 05:56:50;;;;;;;;;;;14.60;99.90;;;;;;5095790;28;20280;-84
2022/10/24 05:59:22;;;;;;;;;;;14.60;99.90;;;;;;5083562;28;19968;-82
2022/10/24 06:01:56;;;;;;;;;;;14.50;99.90;;;;;;5097097;28;19924;-81
2022/10/24 06:04:58;;;;;;;;;;;14.50;99.90;;;;;;5099387;28;20018;-81
2022/10/24 06:07:52;;;;;;;;;;;14.50;99.90;;;;;;5103207;28;20025;-82
2022/10/24 06:10:24;;;;;;;;;;;14.50;99.90;;;;;;5096867;28;19934;-83
2022/10/24 06:13:02;;;;;;;;;;;14.50;99.90;;;;;;5100618;28;19939;-83
2022/10/24 06:15:49;;;;;;;;;;;14.50;99.90;;;;;;5095040;28;19948;-80
2022/10/24 06:18:28;;;;;;;;;;;14.50;99.90;;;;;;5099248;28;19936;-80
2022/10/24 06:21:03;;;;;;;;;;;14.50;99.90;;;;;;5095412;28;19944;-80
2022/10/24 06:23:40;;;;;;;;;;;14.50;99.90;;;;;;5082756;28;20416;-79
2022/10/24 06:26:22;;;;;;;;;;;14.50;99.90;;;;;;5092046;28;19924;-81
2022/10/24 06:29:01;;;;;;;;;;;14.50;99.90;;;;;;5102249;28;19928;-78
2022/10/24 06:31:37;;;;;;;;;;;14.50;99.90;;;;;;5094242;28;20524;-77
2022/10/24 06:34:04;;;;;;;;;;;14.60;99.90;;;;;;5082432;28;20608;-78
2022/10/24 06:36:35;;;;;;;;;;;14.60;99.90;;;;;;5106179;27;19928;-79
2022/10/24 06:39:11;;;;;;;;;;;14.60;99.90;;;;;;5082674;28;19932;-79
2022/10/24 06:41:43;;;;;;;;;;;14.70;99.90;;;;;;5096847;28;20703;-79
2022/10/24 06:44:14;;;;;;;;;;;14.70;99.90;;;;;;5099314;28;19969;-79
2022/10/24 06:46:45;;;;;;;;;;;14.80;99.90;;;;;;5101806;28;19931;-79
2022/10/24 06:49:16;;;;;;;;;;;14.80;99.90;;;;;;5096364;28;20032;-79
2022/10/24 06:51:57;;;;;;;;;;;14.90;99.90;;;;;;5089699;28;19964;-79
2022/10/24 06:54:25;;;;;;;;;;;14.90;99.90;;;;;;5087857;28;19935;-80
2022/10/24 06:57:09;;;;;;;;;;;14.90;99.90;;;;;;5085004;28;19954;-79
2022/10/24 06:59:48;;;;;;;;;;;14.90;99.90;;;;;;5095220;28;19935;-80
2022/10/24 07:02:22;;;;;;;;;;;14.90;99.90;;;;;;5104148;28;19990;-80
2022/10/24 07:04:49;;;;;;;;;;;15.00;99.90;;;;;;5085836;28;20433;-79
2022/10/24 07:07:17;;;;;;;;;;;15.00;99.90;;;;;;5079709;28;20394;-80
2022/10/24 07:09:51;;;;;;;;;;;15.20;99.90;;;;;;5098031;28;20034;-80
2022/10/24 07:12:18;;;;;;;;;;;15.30;99.90;;;;;;5100730;28;19936;-80
2022/10/24 07:14:45;;;;;;;;;;;15.50;99.90;;;;;;5101575;28;20382;-80
2022/10/24 07:17:12;;;;;;;;;;;15.60;99.90;;;;;;5090985;28;19928;-80
2022/10/24 07:19:39;;;;;;;;;;;15.70;99.90;;;;;;5097544;28;20138;-81
2022/10/24 07:22:06;;;;;;;;;;;15.70;99.90;;;;;;5091949;28;19924;-81
2022/10/24 07:24:33;;;;;;;;;;;15.80;99.90;;;;;;5096739;28;20041;-80
2022/10/24 07:27:01;;;;;;;;;;;15.90;99.90;;;;;;5100457;28;19932;-80
2022/10/24 07:29:29;;;;;;;;;;;15.90;99.90;;;;;;5099596;28;19932;-80
2022/10/24 07:31:58;;;;;;;;;;;16.00;99.90;;;;;;5104598;28;19928;-80
2022/10/24 07:34:25;;;;;;;;;;;16.00;99.90;;;;;;5091290;28;20614;-80
2022/10/24 07:36:52;;;;;;;;;;;16.10;99.90;;;;;;5102604;28;19967;-81
2022/10/24 07:39:18;;;;;;;;;;;16.20;99.90;;;;;;5105818;28;20006;-81
2022/10/24 07:41:45;;;;;;;;;;;16.20;99.90;;;;;;5106364;28;20001;-81
2022/10/24 07:44:14;;;;;;;;;;;16.30;99.90;;;;;;5099856;28;19924;-80
2022/10/24 07:46:41;;;;;;;;;;;16.30;99.90;;;;;;5103683;28;20013;-81
2022/10/24 07:49:08;;;;;;;;;;;16.40;99.90;;;;;;5102794;28;19980;-80
2022/10/24 07:51:35;;;;;;;;;;;16.50;99.90;;;;;;5095223;28;20013;-80
2022/10/24 07:54:02;;;;;;;;;;;16.50;99.90;;;;;;5102413;28;19928;-81
2022/10/24 07:56:29;;;;;;;;;;;16.60;99.90;;;;;;5095195;28;19923;-81
2022/10/24 07:58:56;;;;;;;;;;;17.30;99.90;;;;;;5100502;28;20541;-80
2022/10/24 08:01:25;;;;;;;;;;;16.80;99.90;;;;;;5098938;28;19949;-80
2022/10/24 08:03:52;;;;;;;;;;;17.00;99.90;;;;;;5094646;28;19935;-80
2022/10/24 08:06:20;;;;;;;;;;;17.00;99.90;;;;;;5092356;28;20333;-81
2022/10/24 08:08:48;;;;;;;;;;;17.10;99.90;;;;;;5098397;28;20066;-81
2022/10/24 08:11:16;;;;;;;;;;;17.20;99.90;;;;;;5105585;28;19939;-80
2022/10/24 08:13:43;;;;;;;;;;;17.20;99.90;;;;;;5102059;28;19928;-80
2022/10/24 08:16:11;;;;;;;;;;;17.20;99.90;;;;;;5095769;28;19928;-81
2022/10/24 08:18:39;;;;;;;;;;;17.30;99.90;;;;;;5083838;28;20374;-81
2022/10/24 08:21:07;;;;;;;;;;;17.20;99.90;;;;;;5100722;28;19932;-80
2022/10/24 08:23:34;;;;;;;;;;;17.20;99.90;;;;;;5082029;28;19928;-81
2022/10/24 08:26:04;;;;;;;;;;;17.20;99.90;;;;;;5072242;28;19925;-81
2022/10/24 08:28:32;;;;;;;;;;;17.20;99.90;;;;;;5077759;28;19933;-80
2022/10/24 08:30:59;;;;;;;;;;;17.30;99.90;;;;;;5100674;28;19928;-81
2022/10/24 08:33:26;;;;;;;;;;;17.30;99.90;;;;;;5106318;28;19934;-80
2022/10/24 08:35:56;;;;;;;;;;;17.40;99.90;;;;;;5103036;28;20011;-80
2022/10/24 08:38:23;;;;;;;;;;;17.40;99.90;;;;;;5098641;28;19931;-80
2022/10/24 08:40:51;;;;;;;;;;;17.50;99.90;;;;;;5087107;28;19936;-81
2022/10/24 08:43:18;;;;;;;;;;;17.50;99.90;;;;;;5101715;28;19923;-81
2022/10/24 08:45:47;;;;;;;;;;;17.60;99.90;;;;;;5102569;28;19931;-81
2022/10/24 08:48:17;;;;;;;;;;;17.60;99.90;;;;;;5093660;28;20440;-80
2022/10/24 08:50:47;;;;;;;;;;;17.70;99.90;;;;;;5089642;28;19924;-80
2022/10/24 08:53:19;;;;;;;;;;;17.80;99.90;;;;;;5079139;28;19925;-79
2022/10/24 08:55:48;;;;;;;;;;;17.80;99.90;;;;;;5086632;28;20013;-79
2022/10/24 08:58:16;;;;;;;;;;;17.80;99.90;;;;;;5091219;28;20015;-79
2022/10/24 09:00:44;;;;;;;;;;;17.90;99.90;;;;;;5084523;28;20303;-80
2022/10/24 09:03:14;;;;;;;;;;;17.90;99.90;;;;;;5113164;27;19943;-80
2022/10/24 09:05:43;;;;;;;;;;;17.90;99.90;;;;;;5118919;27;19953;-79
2022/10/24 09:08:18;;;;;;;;;;;17.90;99.90;;;;;;5099377;28;20014;-80
2022/10/24 09:10:49;;;;;;;;;;;18.10;99.90;;;;;;5095779;28;20391;-80
2022/10/24 09:13:17;;;;;;;;;;;18.10;99.90;;;;;;5087558;28;19942;-80
2022/10/24 09:15:45;;;;;;;;;;;18.30;99.90;;;;;;5098310;28;19927;-80
2022/10/24 09:18:17;;;;;;;;;;;20.00;99.90;;;;;;5093311;28;19931;-80
2022/10/24 09:20:44;;;;;;;;;;;18.60;99.90;;;;;;5087150;28;19924;-81
2022/10/24 09:23:12;;;;;;;;;;;18.60;99.90;;;;;;5107313;28;19958;-82
2022/10/24 09:25:41;;;;;;;;;;;18.50;99.90;;;;;;5086834;28;19940;-81
2022/10/24 09:28:15;;;;;;;;;;;18.50;99.90;;;;;;5100219;28;20023;-81
2022/10/24 09:30:42;;;;;;;;;;;18.40;99.90;;;;;;5089533;28;19982;-81
2022/10/24 09:33:13;;;;;;;;;;;18.40;99.90;;;;;;5095826;28;19970;-82
2022/10/24 09:35:42;;;;;;;;;;;18.30;99.90;;;;;;5096134;28;19923;-82
2022/10/24 09:38:32;;;;;;;;;;;18.40;99.90;;;;;;5107925;28;19928;-83
2022/10/24 09:41:01;;;;;;;;;;;18.50;99.90;;;;;;5094289;28;19924;-82
2022/10/24 09:43:33;;;;;;;;;;;18.80;99.90;;;;;;5097212;28;19928;-81
2022/10/24 09:46:02;;;;;;;;;;;19.00;99.90;;;;;;5101856;28;19928;-82
2022/10/24 09:48:31;;;;;;;;;;;19.20;99.90;;;;;;5102267;28;20023;-81
2022/10/24 09:50:59;;;;;;;;;;;19.30;99.90;;;;;;5098572;28;20337;-81
2022/10/24 09:53:27;;;;;;;;;;;19.40;99.90;;;;;;5084691;28;19966;-82
2022/10/24 09:55:57;;;;;;;;;;;19.40;99.90;;;;;;5118751;28;20430;-81
2022/10/24 09:58:28;;;;;;;;;;;17.80;99.90;;;;;;5098106;28;19935;-81
2022/10/24 10:01:02;;;;;;;;;;;19.40;99.90;;;;;;5115512;28;19997;-82
2022/10/24 10:03:29;;;;;;;;;;;19.40;99.90;;;;;;5113236;28;19928;-82
2022/10/24 10:05:58;;;;;;;;;;;19.50;99.90;;;;;;5088279;28;19954;-84
2022/10/24 10:08:29;;;;;;;;;;;19.50;99.90;;;;;;5095941;28;20019;-82
2022/10/24 10:10:57;;;;;;;;;;;19.60;99.90;;;;;;5103275;28;20349;-82
2022/10/24 10:13:28;;;;;;;;;;;19.60;99.90;;;;;;5100138;28;19939;-81
2022/10/24 10:15:59;;;;;;;;;;;19.50;99.90;;;;;;5089700;28;19950;-81
2022/10/24 10:18:31;;;;;;;;;;;19.40;99.90;;;;;;5093792;28;20011;-81
2022/10/24 10:21:00;;;;;;;;;;;19.30;99.90;;;;;;5098038;28;19928;-82
2022/10/24 10:23:28;;;;;;;;;;;19.40;99.90;;;;;;5106031;28;19946;-82
2022/10/24 10:26:06;;;;;;;;;;;19.50;99.90;;;;;;5086465;28;19947;-82
2022/10/24 10:28:35;;;;;;;;;;;19.50;99.90;;;;;;5088046;28;20022;-82
2022/10/24 10:31:02;;;;;;;;;;;19.60;99.90;;;;;;5090692;28;19924;-82
2022/10/24 10:33:36;;;;;;;;;;;19.70;99.90;;;;;;5099054;28;19912;-82
2022/10/24 10:36:08;;;;;;;;;;;19.70;99.90;;;;;;5097848;28;19924;-82
2022/10/24 10:38:48;;;;;;;;;;;19.60;99.90;;;;;;5088747;28;20391;-81
2022/10/24 10:41:21;;;;;;;;;;;19.40;99.90;;;;;;5086369;28;19928;-81
2022/10/24 10:43:52;;;;;;;;;;;19.40;99.90;;;;;;5085524;28;20394;-81
2022/10/24 10:46:21;;;;;;;;;;;19.40;99.90;;;;;;5092429;28;19928;-81
2022/10/24 10:48:57;;;;;;;;;;;19.40;99.90;;;;;;5090219;28;19936;-82
2022/10/24 10:51:28;;;;;;;;;;;19.20;99.90;;;;;;5111494;27;19942;-82
2022/10/24 10:53:58;;;;;;;;;;;19.20;99.90;;;;;;5097074;28;19939;-82
2022/10/24 10:56:31;;;;;;;;;;;19.20;99.90;;;;;;5088589;28;20310;-82
2022/10/24 10:59:02;;;;;;;;;;;19.30;99.90;;;;;;5098252;28;20454;-81
2022/10/24 11:01:33;;;;;;;;;;;19.50;99.90;;;;;;5089064;28;20009;-82
2022/10/24 11:04:06;;;;;;;;;;;19.70;99.90;;;;;;5087704;28;19952;-82
2022/10/24 11:06:37;;;;;;;;;;;19.90;99.90;;;;;;5114196;28;20286;-82
2022/10/24 11:09:18;;;;;;;;;;;20.00;99.90;;;;;;5098480;28;20014;-82
2022/10/24 11:11:47;;;;;;;;;;;20.10;99.90;;;;;;5103123;28;19963;-82
2022/10/24 11:14:19;;;;;;;;;;;20.10;99.90;;;;;;5100142;28;19928;-82
2022/10/24 11:16:46;;;;;;;;;;;19.80;99.90;;;;;;5096908;28;19932;-82
2022/10/24 11:19:21;;;;;;;;;;;20.10;99.90;;;;;;5091038;28;19959;-83
2022/10/24 11:21:49;;;;;;;;;;;20.20;99.90;;;;;;5088301;28;19928;-83
2022/10/24 11:24:18;;;;;;;;;;;20.20;99.90;;;;;;5095328;28;20375;-83
2022/10/24 11:26:48;;;;;;;;;;;20.20;99.90;;;;;;5103776;28;19925;-82
2022/10/24 11:29:17;;;;;;;;;;;20.20;99.90;;;;;;5112234;28;19924;-82
2022/10/24 11:31:46;;;;;;;;;;;20.00;99.90;;;;;;5089774;28;19924;-82
2022/10/24 11:34:17;;;;;;;;;;;19.90;99.90;;;;;;5098181;28;19924;-83
2022/10/24 11:36:46;;;;;;;;;;;19.90;99.90;;;;;;5098895;28;19935;-82
2022/10/24 11:39:16;;;;;;;;;;;19.70;99.90;;;;;;5121853;27;19928;-83
2022/10/24 11:41:46;;;;;;;;;;;19.60;99.90;;;;;;5099272;28;19924;-82
2022/10/24 11:44:21;;;;;;;;;;;19.50;99.90;;;;;;5087452;28;19928;-83
2022/10/24 11:46:51;;;;;;;;;;;19.40;99.90;;;;;;5105519;28;19932;-83
2022/10/24 11:49:22;;;;;;;;;;;19.20;99.90;;;;;;5116242;28;19973;-82
2022/10/24 11:51:51;;;;;;;;;;;19.10;99.90;;;;;;5105402;28;20333;-82
2022/10/24 11:54:21;;;;;;;;;;;19.10;99.90;;;;;;5090522;28;19939;-82
2022/10/24 11:56:50;;;;;;;;;;;19.00;99.90;;;;;;5097212;28;20349;-82
2022/10/24 11:59:20;;;;;;;;;;;18.90;99.90;;;;;;5096294;28;19924;-82
2022/10/24 12:02:02;;;;;;;;;;;18.90;99.90;;;;;;5094083;28;19984;-82
2022/10/24 12:04:45;;;;;;;;;;;18.90;99.90;;;;;;5091984;28;19930;-82
2022/10/24 12:07:30;;;;;;;;;;;18.90;99.90;;;;;;5100384;28;19928;-82
2022/10/24 12:10:08;;;;;;;;;;;18.90;99.90;;;;;;5062935;28;19928;-83
2022/10/24 12:12:50;;;;;;;;;;;18.80;99.90;;;;;;5102969;28;19951;-83
2022/10/24 12:15:29;;;;;;;;;;;18.80;99.90;;;;;;5101606;28;19946;-83
2022/10/24 12:18:01;;;;;;;;;;;18.70;99.90;;;;;;5105852;28;19936;-84
2022/10/24 12:20:30;;;;;;;;;;;18.70;99.90;;;;;;5107735;28;19939;-82
2022/10/24 12:22:57;;;;;;;;;;;18.70;99.90;;;;;;5092971;28;19932;-83
2022/10/24 12:25:31;;;;;;;;;;;18.80;99.90;;;;;;5108031;28;19928;-83
2022/10/24 12:27:58;;;;;;;;;;;18.70;99.90;;;;;;5097200;28;19924;-83
2022/10/24 12:30:26;;;;;;;;;;;18.80;99.90;;;;;;5109209;28;19925;-83
2022/10/24 12:32:54;;;;;;;;;;;18.70;99.90;;;;;;5112483;28;19928;-83
2022/10/24 12:35:43;;;;;;;;;;;18.60;99.90;;;;;;5089268;28;19992;-82
2022/10/24 12:38:15;;;;;;;;;;;18.50;99.90;;;;;;5094614;28;19935;-82
2022/10/24 12:40:57;;;;;;;;;;;18.50;99.90;;;;;;5097490;28;19931;-82
2022/10/24 12:43:32;;;;;;;;;;;18.50;99.90;;;;;;5110184;27;20116;-82
2022/10/24 12:46:00;;;;;;;;;;;18.60;99.90;;;;;;5113252;28;19928;-82
2022/10/24 12:48:31;;;;;;;;;;;18.60;99.90;;;;;;5100570;28;20409;-81
2022/10/24 12:51:09;;;;;;;;;;;18.70;99.90;;;;;;5110401;28;19935;-83
2022/10/24 12:53:37;;;;;;;;;;;18.60;99.90;;;;;;5100112;28;19928;-82
2022/10/24 12:56:20;;;;;;;;;;;18.50;99.90;;;;;;5088488;28;19931;-84
2022/10/24 12:59:01;;;;;;;;;;;18.40;99.90;;;;;;5099180;28;20480;-80
2022/10/24 13:01:41;;;;;;;;;;;18.20;99.90;;;;;;5081418;28;20003;-82
2022/10/24 13:04:29;;;;;;;;;;;18.10;99.90;;;;;;5089824;28;19928;-82
2022/10/24 13:06:56;;;;;;;;;;;;;;;;;;5100591;28;20023;-82
2022/10/24 13:09:28;;;;;;;;;;;18.10;99.90;;;;;;5091022;28;19927;-82
2022/10/24 13:12:01;;;;;;;;;;;18.20;99.90;;;;;;5103688;27;19928;-81
2022/10/24 13:14:35;;;;;;;;;;;18.30;99.90;;;;;;5097270;28;19934;-81
2022/10/24 13:17:07;;;;;;;;;;;18.40;99.90;;;;;;5100101;28;19931;-81
2022/10/24 13:19:35;;;;;;;;;;;18.40;99.90;;;;;;5108030;28;20308;-81
2022/10/24 13:22:03;;;;;;;;;;;18.60;99.90;;;;;;5101714;28;20410;-81
2022/10/24 13:24:35;;;;;;;;;;;18.80;99.90;;;;;;5085497;28;20006;-81
2022/10/24 13:27:25;;;;;;;;;;;19.00;99.90;;;;;;5099646;28;19928;-82
2022/10/24 13:30:23;;;;;;;;;;;19.30;99.90;;;;;;5104443;28;20004;-81
2022/10/24 13:32:51;;;;;;;;;;;19.60;99.90;;;;;;5107075;28;19977;-80
2022/10/24 13:35:22;;;;;;;;;;;19.70;99.90;;;;;;5102076;28;20338;-80
2022/10/24 13:37:51;;;;;;;;;;;19.70;99.90;;;;;;5094620;28;19924;-80
2022/10/24 13:40:25;;;;;;;;;;;19.60;99.90;;;;;;5075346;28;20012;-80
2022/10/24 13:42:56;;;;;;;;;;;19.50;99.90;;;;;;5088596;28;20340;-80
2022/10/24 13:45:27;;;;;;;;;;;19.50;99.90;;;;;;5104470;28;19928;-80
2022/10/24 13:48:01;;;;;;;;;;;19.60;99.90;;;;;;5112594;28;19927;-80
2022/10/24 13:50:31;;;;;;;;;;;19.60;99.90;;;;;;5095052;28;19939;-80
2022/10/24 13:52:59;;;;;;;;;;;20.00;99.90;;;;;;5093457;28;19991;-81
2022/10/24 13:55:30;;;;;;;;;;;20.00;99.90;;;;;;5090431;28;19963;-80
2022/10/24 13:57:59;;;;;;;;;;;19.90;99.90;;;;;;5102729;28;19928;-80
2022/10/24 14:00:30;;;;;;;;;;;19.90;99.90;;;;;;5091531;28;20019;-81
2022/10/24 14:02:58;;;;;;;;;;;;;;;;;;5098861;28;19925;-81
2022/10/24 14:05:30;;;;;;;;;;;20.10;99.90;;;;;;5104959;28;20006;-82
2022/10/24 14:07:59;;;;;;;;;;;20.10;99.90;;;;;;5095135;28;19928;-80
2022/10/24 14:10:27;;;;;;;;;;;20.10;99.90;;;;;;5099062;28;19928;-81
2022/10/24 14:13:03;;;;;;;;;;;20.00;99.90;;;;;;5094053;28;19928;-80
2022/10/24 14:15:32;;;;;;;;;;;19.90;99.90;;;;;;5107385;28;19932;-81
2022/10/24 14:18:00;;;;;;;;;;;19.90;99.90;;;;;;5090100;28;19924;-80
2022/10/24 14:20:28;;;;;;;;;;;19.90;99.90;;;;;;5095118;28;19932;-80
2022/10/24 14:22:56;;;;;;;;;;;19.70;99.90;;;;;;5096977;28;19924;-80
2022/10/24 14:25:24;;;;;;;;;;;19.60;99.90;;;;;;5096024;28;20398;-79
2022/10/24 14:27:52;;;;;;;;;;;19.60;99.90;;;;;;5092972;28;19924;-80
2022/10/24 14:30:20;;;;;;;;;;;19.50;99.90;;;;;;5106554;28;19973;-82
2022/10/24 14:32:49;;;;;;;;;;;19.50;99.90;;;;;;5107471;28;19935;-80
2022/10/24 14:35:18;;;;;;;;;;;19.40;99.90;;;;;;5090494;28;20072;-80
2022/10/24 14:37:45;;;;;;;;;;;19.30;99.90;;;;;;5116691;27;19947;-80
2022/10/24 14:40:15;;;;;;;;;;;19.30;99.90;;;;;;5078570;28;19925;-79
2022/10/24 14:42:43;;;;;;;;;;;19.10;99.90;;;;;;5080513;28;19928;-79
2022/10/24 14:45:21;;;;;;;;;;;19.10;99.90;;;;;;5088829;28;19924;-80
2022/10/24 14:47:51;;;;;;;;;;;19.00;99.90;;;;;;5102623;28;19994;-81
2022/10/24 14:50:38;;;;;;;;;;;18.90;99.90;;;;;;5098370;28;19932;-79
2022/10/24 14:53:20;;;;;;;;;;;18.70;99.90;;;;;;5093738;28;19932;-78